sensor_id;sensor_type;location;lat;lon;timestamp;temperature;humidity
76537;DHT22;65381;51.254;15.592;2023-04-05T00:01:08;0.00;49.20
76537;DHT22;65381;51.254;15.592;2023-04-05T00:03:39;0.00;49.30
76537;DHT22;65381;51.254;15.592;2023-04-05T00:06:09;0.00;49.30
76537;DHT22;65381;51.254;15.592;2023-04-05T00:08:40;0.00;49.40
76537;DHT22;65381;51.254;15.592;2023-04-05T00:11:08;0.00;49.50
76537;DHT22;65381;51.254;15.592;2023-04-05T00:13:36;0.00;49.50
76537;DHT22;65381;51.254;15.592;2023-04-05T00:16:04;0.10;49.50
76537;DHT22;65381;51.254;15.592;2023-04-05T00:18:34;0.20;49.50
76537;DHT22;65381;51.254;15.592;2023-04-05T00:21:05;0.20;49.60
76537;DHT22;65381;51.254;15.592;2023-04-05T00:23:33;0.20;49.60
76537;DHT22;65381;51.254;15.592;2023-04-05T00:26:05;0.20;49.70
76537;DHT22;65381;51.254;15.592;2023-04-05T00:28:33;0.20;49.70
76537;DHT22;65381;51.254;15.592;2023-04-05T00:31:03;0.20;49.80
76537;DHT22;65381;51.254;15.592;2023-04-05T00:33:32;0.20;49.80
76537;DHT22;65381;51.254;15.592;2023-04-05T00:36:17;0.00;49.80
76537;DHT22;65381;51.254;15.592;2023-04-05T00:38:46;0.00;49.80
76537;DHT22;65381;51.254;15.592;2023-04-05T00:41:14;0.00;49.80
76537;DHT22;65381;51.254;15.592;2023-04-05T00:43:43;0.00;49.90
76537;DHT22;65381;51.254;15.592;2023-04-05T00:46:11;0.00;50.00
76537;DHT22;65381;51.254;15.592;2023-04-05T00:48:39;-0.10;50.10
76537;DHT22;65381;51.254;15.592;2023-04-05T00:51:09;-0.10;50.00
76537;DHT22;65381;51.254;15.592;2023-04-05T00:53:39;-0.10;50.10
76537;DHT22;65381;51.254;15.592;2023-04-05T00:56:07;-0.10;50.10
76537;DHT22;65381;51.254;15.592;2023-04-05T00:58:37;-0.10;50.10
76537;DHT22;65381;51.254;15.592;2023-04-05T01:03:46;-0.30;50.10
76537;DHT22;65381;51.254;15.592;2023-04-05T01:06:27;-0.40;50.20
76537;DHT22;65381;51.254;15.592;2023-04-05T01:09:15;-0.60;50.20
76537;DHT22;65381;51.254;15.592;2023-04-05T01:11:46;-0.70;50.20
76537;DHT22;65381;51.254;15.592;2023-04-05T01:14:15;-0.80;50.20
76537;DHT22;65381;51.254;15.592;2023-04-05T01:16:44;-1.00;50.30
76537;DHT22;65381;51.254;15.592;2023-04-05T01:19:12;-1.10;50.30
76537;DHT22;65381;51.254;15.592;2023-04-05T01:22:01;-1.10;50.30
76537;DHT22;65381;51.254;15.592;2023-04-05T01:28:17;-1.40;50.40
76537;DHT22;65381;51.254;15.592;2023-04-05T01:31:00;-1.50;50.50
76537;DHT22;65381;51.254;15.592;2023-04-05T01:33:43;-1.60;50.50
76537;DHT22;65381;51.254;15.592;2023-04-05T01:39:07;-1.70;50.60
76537;DHT22;65381;51.254;15.592;2023-04-05T01:41:38;-1.80;50.60
76537;DHT22;65381;51.254;15.592;2023-04-05T01:44:07;-1.90;50.60
76537;DHT22;65381;51.254;15.592;2023-04-05T01:46:35;-2.00;50.70
76537;DHT22;65381;51.254;15.592;2023-04-05T01:49:04;-2.10;50.70
76537;DHT22;65381;51.254;15.592;2023-04-05T01:51:32;-2.10;50.80
76537;DHT22;65381;51.254;15.592;2023-04-05T01:53:59;-2.10;50.80
76537;DHT22;65381;51.254;15.592;2023-04-05T01:56:28;-2.10;50.80
76537;DHT22;65381;51.254;15.592;2023-04-05T01:58:55;-2.10;50.80
76537;DHT22;65381;51.254;15.592;2023-04-05T02:01:23;-2.10;50.80
76537;DHT22;65381;51.254;15.592;2023-04-05T02:03:51;-2.10;50.80
76537;DHT22;65381;51.254;15.592;2023-04-05T02:06:21;-2.10;50.80
76537;DHT22;65381;51.254;15.592;2023-04-05T02:08:49;-2.00;50.80
76537;DHT22;65381;51.254;15.592;2023-04-05T02:11:17;-2.10;50.80
76537;DHT22;65381;51.254;15.592;2023-04-05T02:13:45;-2.10;50.90
76537;DHT22;65381;51.254;15.592;2023-04-05T02:16:13;-2.10;50.90
76537;DHT22;65381;51.254;15.592;2023-04-05T02:18:41;-2.00;51.00
76537;DHT22;65381;51.254;15.592;2023-04-05T02:21:10;-2.10;51.10
76537;DHT22;65381;51.254;15.592;2023-04-05T02:23:38;-2.00;51.20
76537;DHT22;65381;51.254;15.592;2023-04-05T02:26:06;-1.90;51.20
76537;DHT22;65381;51.254;15.592;2023-04-05T02:28:33;-1.90;51.40
76537;DHT22;65381;51.254;15.592;2023-04-05T02:31:08;-1.90;51.50
76537;DHT22;65381;51.254;15.592;2023-04-05T02:33:39;-1.90;51.50
76537;DHT22;65381;51.254;15.592;2023-04-05T02:36:09;-1.90;51.60
76537;DHT22;65381;51.254;15.592;2023-04-05T02:38:37;-1.80;51.60
76537;DHT22;65381;51.254;15.592;2023-04-05T02:41:09;-1.90;51.70
76537;DHT22;65381;51.254;15.592;2023-04-05T02:43:38;-1.90;51.80
76537;DHT22;65381;51.254;15.592;2023-04-05T02:46:06;-1.80;51.90
76537;DHT22;65381;51.254;15.592;2023-04-05T02:48:38;-1.80;51.90
76537;DHT22;65381;51.254;15.592;2023-04-05T02:51:08;-1.80;51.90
76537;DHT22;65381;51.254;15.592;2023-04-05T02:53:37;-1.80;51.90
76537;DHT22;65381;51.254;15.592;2023-04-05T02:56:08;-1.80;51.90
76537;DHT22;65381;51.254;15.592;2023-04-05T02:58:41;-1.80;52.00
76537;DHT22;65381;51.254;15.592;2023-04-05T03:01:10;-1.80;51.90
76537;DHT22;65381;51.254;15.592;2023-04-05T03:03:38;-1.90;51.90
76537;DHT22;65381;51.254;15.592;2023-04-05T03:06:08;-1.90;52.00
76537;DHT22;65381;51.254;15.592;2023-04-05T03:08:44;-1.90;52.00
76537;DHT22;65381;51.254;15.592;2023-04-05T03:11:19;-2.00;52.00
76537;DHT22;65381;51.254;15.592;2023-04-05T03:13:51;-2.00;52.00
76537;DHT22;65381;51.254;15.592;2023-04-05T03:16:45;-2.10;52.10
76537;DHT22;65381;51.254;15.592;2023-04-05T03:19:21;-2.10;52.00
76537;DHT22;65381;51.254;15.592;2023-04-05T03:21:53;-2.10;52.10
76537;DHT22;65381;51.254;15.592;2023-04-05T03:24:26;-2.10;52.10
76537;DHT22;65381;51.254;15.592;2023-04-05T03:27:01;-2.20;52.10
76537;DHT22;65381;51.254;15.592;2023-04-05T03:29:33;-2.30;52.20
76537;DHT22;65381;51.254;15.592;2023-04-05T03:32:11;-2.30;52.20
76537;DHT22;65381;51.254;15.592;2023-04-05T03:34:47;-2.30;52.30
76537;DHT22;65381;51.254;15.592;2023-04-05T03:37:17;-2.30;52.30
76537;DHT22;65381;51.254;15.592;2023-04-05T03:39:52;-2.30;52.40
76537;DHT22;65381;51.254;15.592;2023-04-05T03:42:20;-2.30;52.40
76537;DHT22;65381;51.254;15.592;2023-04-05T03:44:51;-2.20;52.40
76537;DHT22;65381;51.254;15.592;2023-04-05T03:47:19;-2.20;52.50
76537;DHT22;65381;51.254;15.592;2023-04-05T03:49:47;-2.20;52.50
76537;DHT22;65381;51.254;15.592;2023-04-05T03:52:15;-2.10;52.60
76537;DHT22;65381;51.254;15.592;2023-04-05T03:54:44;-2.10;52.60
76537;DHT22;65381;51.254;15.592;2023-04-05T03:57:16;-2.10;52.70
76537;DHT22;65381;51.254;15.592;2023-04-05T03:59:48;-1.90;52.80
76537;DHT22;65381;51.254;15.592;2023-04-05T04:02:17;-1.90;52.80
76537;DHT22;65381;51.254;15.592;2023-04-05T04:04:45;-1.80;52.90
76537;DHT22;65381;51.254;15.592;2023-04-05T04:07:14;-1.80;53.00
76537;DHT22;65381;51.254;15.592;2023-04-05T04:09:43;-1.70;53.10
76537;DHT22;65381;51.254;15.592;2023-04-05T04:12:12;-1.70;53.20
76537;DHT22;65381;51.254;15.592;2023-04-05T04:14:51;-1.60;53.20
76537;DHT22;65381;51.254;15.592;2023-04-05T04:17:31;-1.60;53.20
76537;DHT22;65381;51.254;15.592;2023-04-05T04:20:18;-1.50;53.30
76537;DHT22;65381;51.254;15.592;2023-04-05T04:23:09;-1.50;53.40
76537;DHT22;65381;51.254;15.592;2023-04-05T04:25:57;-1.40;53.50
76537;DHT22;65381;51.254;15.592;2023-04-05T04:28:45;-1.30;53.60
76537;DHT22;65381;51.254;15.592;2023-04-05T04:31:21;-1.30;53.70
76537;DHT22;65381;51.254;15.592;2023-04-05T04:33:56;-1.20;53.80
76537;DHT22;65381;51.254;15.592;2023-04-05T04:36:41;-1.10;53.90
76537;DHT22;65381;51.254;15.592;2023-04-05T04:39:34;-1.10;54.10
76537;DHT22;65381;51.254;15.592;2023-04-05T04:42:32;-1.10;54.20
76537;DHT22;65381;51.254;15.592;2023-04-05T04:45:17;-1.00;54.30
76537;DHT22;65381;51.254;15.592;2023-04-05T04:47:59;-1.00;54.30
76537;DHT22;65381;51.254;15.592;2023-04-05T04:50:50;-0.90;54.20
76537;DHT22;65381;51.254;15.592;2023-04-05T04:53:19;-0.90;54.30
76537;DHT22;65381;51.254;15.592;2023-04-05T04:55:50;-0.80;54.40
76537;DHT22;65381;51.254;15.592;2023-04-05T04:58:18;-0.70;54.40
76537;DHT22;65381;51.254;15.592;2023-04-05T05:00:55;-0.70;54.30
76537;DHT22;65381;51.254;15.592;2023-04-05T05:03:25;-0.70;54.40
76537;DHT22;65381;51.254;15.592;2023-04-05T05:05:53;-0.60;54.50
76537;DHT22;65381;51.254;15.592;2023-04-05T05:08:29;-0.60;54.50
76537;DHT22;65381;51.254;15.592;2023-04-05T05:10:57;-0.50;54.60
76537;DHT22;65381;51.254;15.592;2023-04-05T05:13:26;-0.40;54.70
76537;DHT22;65381;51.254;15.592;2023-04-05T05:15:54;-0.40;54.70
76537;DHT22;65381;51.254;15.592;2023-04-05T05:18:24;-0.40;54.80
76537;DHT22;65381;51.254;15.592;2023-04-05T05:20:53;-0.30;54.90
76537;DHT22;65381;51.254;15.592;2023-04-05T05:23:20;-0.30;55.00
76537;DHT22;65381;51.254;15.592;2023-04-05T05:25:48;-0.20;55.00
76537;DHT22;65381;51.254;15.592;2023-04-05T05:28:16;-0.20;55.00
76537;DHT22;65381;51.254;15.592;2023-04-05T05:30:45;-0.20;55.10
76537;DHT22;65381;51.254;15.592;2023-04-05T05:33:13;-0.10;55.10
76537;DHT22;65381;51.254;15.592;2023-04-05T05:35:41;-0.10;55.20
76537;DHT22;65381;51.254;15.592;2023-04-05T05:38:09;0.00;55.20
76537;DHT22;65381;51.254;15.592;2023-04-05T05:40:40;0.00;55.20
76537;DHT22;65381;51.254;15.592;2023-04-05T05:43:08;0.00;55.30
76537;DHT22;65381;51.254;15.592;2023-04-05T05:45:39;0.00;55.40
76537;DHT22;65381;51.254;15.592;2023-04-05T05:48:07;0.00;55.50
76537;DHT22;65381;51.254;15.592;2023-04-05T05:50:36;0.00;55.50
76537;DHT22;65381;51.254;15.592;2023-04-05T05:53:06;0.10;55.70
76537;DHT22;65381;51.254;15.592;2023-04-05T05:55:34;0.20;55.80
76537;DHT22;65381;51.254;15.592;2023-04-05T05:58:03;0.20;56.00
76537;DHT22;65381;51.254;15.592;2023-04-05T06:00:32;0.40;56.10
76537;DHT22;65381;51.254;15.592;2023-04-05T06:03:00;0.60;56.00
76537;DHT22;65381;51.254;15.592;2023-04-05T06:05:28;0.70;55.90
76537;DHT22;65381;51.254;15.592;2023-04-05T06:07:56;0.90;55.90
76537;DHT22;65381;51.254;15.592;2023-04-05T06:10:24;1.10;55.90
76537;DHT22;65381;51.254;15.592;2023-04-05T06:12:52;1.30;55.70
76537;DHT22;65381;51.254;15.592;2023-04-05T06:15:20;1.40;55.80
76537;DHT22;65381;51.254;15.592;2023-04-05T06:17:48;1.50;55.80
76537;DHT22;65381;51.254;15.592;2023-04-05T06:20:17;1.60;55.90
76537;DHT22;65381;51.254;15.592;2023-04-05T06:22:45;1.60;56.10
76537;DHT22;65381;51.254;15.592;2023-04-05T06:25:13;1.80;56.20
76537;DHT22;65381;51.254;15.592;2023-04-05T06:27:44;1.90;56.10
76537;DHT22;65381;51.254;15.592;2023-04-05T06:30:13;2.10;56.20
76537;DHT22;65381;51.254;15.592;2023-04-05T06:32:41;2.30;56.10
76537;DHT22;65381;51.254;15.592;2023-04-05T06:35:11;2.50;56.10
76537;DHT22;65381;51.254;15.592;2023-04-05T06:37:39;2.70;56.00
76537;DHT22;65381;51.254;15.592;2023-04-05T06:40:09;2.80;56.10
76537;DHT22;65381;51.254;15.592;2023-04-05T06:42:37;2.90;56.10
76537;DHT22;65381;51.254;15.592;2023-04-05T06:45:08;3.10;56.20
76537;DHT22;65381;51.254;15.592;2023-04-05T06:47:38;3.30;56.10
76537;DHT22;65381;51.254;15.592;2023-04-05T06:50:07;3.50;55.80
76537;DHT22;65381;51.254;15.592;2023-04-05T06:52:35;3.50;55.80
76537;DHT22;65381;51.254;15.592;2023-04-05T06:55:04;3.50;55.90
76537;DHT22;65381;51.254;15.592;2023-04-05T06:57:33;3.60;56.10
76537;DHT22;65381;51.254;15.592;2023-04-05T07:00:01;3.90;56.30
76537;DHT22;65381;51.254;15.592;2023-04-05T07:02:30;4.30;56.00
76537;DHT22;65381;51.254;15.592;2023-04-05T07:05:02;4.30;55.80
76537;DHT22;65381;51.254;15.592;2023-04-05T07:07:32;4.30;55.90
76537;DHT22;65381;51.254;15.592;2023-04-05T07:10:00;4.30;55.90
76537;DHT22;65381;51.254;15.592;2023-04-05T07:12:28;4.20;56.10
76537;DHT22;65381;51.254;15.592;2023-04-05T07:14:58;4.20;56.20
76537;DHT22;65381;51.254;15.592;2023-04-05T07:17:26;4.10;56.20
76537;DHT22;65381;51.254;15.592;2023-04-05T07:19:55;4.00;56.20
76537;DHT22;65381;51.254;15.592;2023-04-05T07:22:22;4.00;56.30
76537;DHT22;65381;51.254;15.592;2023-04-05T07:24:51;4.00;56.50
76537;DHT22;65381;51.254;15.592;2023-04-05T07:27:19;4.30;56.60
76537;DHT22;65381;51.254;15.592;2023-04-05T07:29:47;4.70;56.40
76537;DHT22;65381;51.254;15.592;2023-04-05T07:32:15;4.70;56.00
76537;DHT22;65381;51.254;15.592;2023-04-05T07:34:44;4.70;55.80
76537;DHT22;65381;51.254;15.592;2023-04-05T07:37:12;4.50;55.90
76537;DHT22;65381;51.254;15.592;2023-04-05T07:39:40;4.40;55.80
76537;DHT22;65381;51.254;15.592;2023-04-05T07:42:08;4.30;55.90
76537;DHT22;65381;51.254;15.592;2023-04-05T07:44:38;4.30;56.10
76537;DHT22;65381;51.254;15.592;2023-04-05T07:47:06;4.40;56.00
76537;DHT22;65381;51.254;15.592;2023-04-05T07:49:34;4.50;55.90
76537;DHT22;65381;51.254;15.592;2023-04-05T07:52:05;4.50;55.80
76537;DHT22;65381;51.254;15.592;2023-04-05T07:54:33;4.70;55.70
76537;DHT22;65381;51.254;15.592;2023-04-05T07:57:01;4.70;55.80
76537;DHT22;65381;51.254;15.592;2023-04-05T07:59:30;4.90;55.80
76537;DHT22;65381;51.254;15.592;2023-04-05T08:01:57;5.10;55.70
76537;DHT22;65381;51.254;15.592;2023-04-05T08:04:40;5.30;55.60
76537;DHT22;65381;51.254;15.592;2023-04-05T08:07:08;5.60;55.60
76537;DHT22;65381;51.254;15.592;2023-04-05T08:09:36;6.10;55.50
76537;DHT22;65381;51.254;15.592;2023-04-05T08:12:04;6.70;55.50
76537;DHT22;65381;51.254;15.592;2023-04-05T08:14:34;7.40;55.40
76537;DHT22;65381;51.254;15.592;2023-04-05T08:17:02;8.30;55.00
76537;DHT22;65381;51.254;15.592;2023-04-05T08:19:30;9.00;54.70
76537;DHT22;65381;51.254;15.592;2023-04-05T08:21:58;9.70;54.50
76537;DHT22;65381;51.254;15.592;2023-04-05T08:24:26;10.30;54.50
76537;DHT22;65381;51.254;15.592;2023-04-05T08:26:54;11.00;54.40
76537;DHT22;65381;51.254;15.592;2023-04-05T08:29:22;11.90;54.00
76537;DHT22;65381;51.254;15.592;2023-04-05T08:31:50;13.10;53.70
76537;DHT22;65381;51.254;15.592;2023-04-05T08:34:18;14.30;52.90
76537;DHT22;65381;51.254;15.592;2023-04-05T08:36:46;15.20;52.20
76537;DHT22;65381;51.254;15.592;2023-04-05T08:39:15;15.60;51.70
76537;DHT22;65381;51.254;15.592;2023-04-05T08:42:02;15.00;51.00
76537;DHT22;65381;51.254;15.592;2023-04-05T08:44:31;14.30;51.60
76537;DHT22;65381;51.254;15.592;2023-04-05T08:47:03;14.00;51.90
76537;DHT22;65381;51.254;15.592;2023-04-05T08:49:31;13.70;51.70
76537;DHT22;65381;51.254;15.592;2023-04-05T08:52:00;13.10;51.70
76537;DHT22;65381;51.254;15.592;2023-04-05T08:54:28;12.40;51.20
76537;DHT22;65381;51.254;15.592;2023-04-05T08:56:57;11.50;51.50
76537;DHT22;65381;51.254;15.592;2023-04-05T08:59:26;11.00;51.70
76537;DHT22;65381;51.254;15.592;2023-04-05T09:01:55;10.80;51.80
76537;DHT22;65381;51.254;15.592;2023-04-05T09:04:25;10.70;51.80
76537;DHT22;65381;51.254;15.592;2023-04-05T09:06:56;10.70;52.20
76537;DHT22;65381;51.254;15.592;2023-04-05T09:09:25;10.90;51.80
76537;DHT22;65381;51.254;15.592;2023-04-05T09:11:54;11.40;51.60
76537;DHT22;65381;51.254;15.592;2023-04-05T09:14:24;11.90;51.00
76537;DHT22;65381;51.254;15.592;2023-04-05T09:16:53;11.90;50.10
76537;DHT22;65381;51.254;15.592;2023-04-05T09:19:22;11.40;50.10
76537;DHT22;65381;51.254;15.592;2023-04-05T09:22:06;11.00;49.80
76537;DHT22;65381;51.254;15.592;2023-04-05T09:24:41;10.20;49.80
76537;DHT22;65381;51.254;15.592;2023-04-05T09:27:13;9.80;50.30
76537;DHT22;65381;51.254;15.592;2023-04-05T09:29:45;9.90;50.30
76537;DHT22;65381;51.254;15.592;2023-04-05T09:32:15;10.10;50.10
76537;DHT22;65381;51.254;15.592;2023-04-05T09:34:44;11.10;50.40
76537;DHT22;65381;51.254;15.592;2023-04-05T09:37:27;12.70;50.30
76537;DHT22;65381;51.254;15.592;2023-04-05T09:40:04;14.90;48.30
76537;DHT22;65381;51.254;15.592;2023-04-05T09:42:42;15.80;47.50
76537;DHT22;65381;51.254;15.592;2023-04-05T09:45:15;16.70;47.00
76537;DHT22;65381;51.254;15.592;2023-04-05T09:47:56;17.00;46.20
76537;DHT22;65381;51.254;15.592;2023-04-05T09:50:25;16.70;46.60
76537;DHT22;65381;51.254;15.592;2023-04-05T09:53:08;16.50;46.40
76537;DHT22;65381;51.254;15.592;2023-04-05T09:55:36;16.30;45.50
76537;DHT22;65381;51.254;15.592;2023-04-05T09:58:04;16.10;45.20
76537;DHT22;65381;51.254;15.592;2023-04-05T10:00:35;15.80;44.80
76537;DHT22;65381;51.254;15.592;2023-04-05T10:03:04;15.50;45.00
76537;DHT22;65381;51.254;15.592;2023-04-05T10:05:32;15.50;45.10
76537;DHT22;65381;51.254;15.592;2023-04-05T10:08:00;15.20;45.10
76537;DHT22;65381;51.254;15.592;2023-04-05T10:10:30;14.90;45.40
76537;DHT22;65381;51.254;15.592;2023-04-05T10:13:04;14.60;45.50
76537;DHT22;65381;51.254;15.592;2023-04-05T10:15:33;14.10;45.40
76537;DHT22;65381;51.254;15.592;2023-04-05T10:18:12;13.30;45.50
76537;DHT22;65381;51.254;15.592;2023-04-05T10:20:44;12.50;45.50
76537;DHT22;65381;51.254;15.592;2023-04-05T10:23:21;11.50;45.70
76537;DHT22;65381;51.254;15.592;2023-04-05T10:26:03;10.60;46.20
76537;DHT22;65381;51.254;15.592;2023-04-05T10:28:35;9.90;46.50
76537;DHT22;65381;51.254;15.592;2023-04-05T10:31:09;9.40;46.80
76537;DHT22;65381;51.254;15.592;2023-04-05T10:33:46;9.10;46.70
76537;DHT22;65381;51.254;15.592;2023-04-05T10:36:25;8.90;46.80
76537;DHT22;65381;51.254;15.592;2023-04-05T10:42:17;8.60;46.70
76537;DHT22;65381;51.254;15.592;2023-04-05T10:44:58;8.40;46.80
76537;DHT22;65381;51.254;15.592;2023-04-05T10:47:31;8.40;46.90
76537;DHT22;65381;51.254;15.592;2023-04-05T10:50:08;8.60;47.00
76537;DHT22;65381;51.254;15.592;2023-04-05T10:52:39;9.40;47.00
76537;DHT22;65381;51.254;15.592;2023-04-05T10:55:09;9.60;46.40
76537;DHT22;65381;51.254;15.592;2023-04-05T10:57:37;9.40;46.50
76537;DHT22;65381;51.254;15.592;2023-04-05T11:00:07;9.50;47.00
76537;DHT22;65381;51.254;15.592;2023-04-05T11:02:37;10.10;47.20
76537;DHT22;65381;51.254;15.592;2023-04-05T11:05:05;11.00;46.80
76537;DHT22;65381;51.254;15.592;2023-04-05T11:07:44;11.40;46.70
76537;DHT22;65381;51.254;15.592;2023-04-05T11:10:16;12.10;46.70
76537;DHT22;65381;51.254;15.592;2023-04-05T11:18:03;16.00;45.30
76537;DHT22;65381;51.254;15.592;2023-04-05T11:20:49;17.50;43.50
76537;DHT22;65381;51.254;15.592;2023-04-05T11:23:23;18.10;43.50
76537;DHT22;65381;51.254;15.592;2023-04-05T11:25:54;19.60;43.30
76537;DHT22;65381;51.254;15.592;2023-04-05T11:28:33;20.90;42.40
76537;DHT22;65381;51.254;15.592;2023-04-05T11:31:18;21.40;42.10
76537;DHT22;65381;51.254;15.592;2023-04-05T11:36:31;24.40;41.20
76537;DHT22;65381;51.254;15.592;2023-04-05T11:41:53;24.30;40.80
76537;DHT22;65381;51.254;15.592;2023-04-05T11:44:22;23.90;40.00
76537;DHT22;65381;51.254;15.592;2023-04-05T11:46:53;22.00;40.60
76537;DHT22;65381;51.254;15.592;2023-04-05T11:49:23;20.00;40.70
76537;DHT22;65381;51.254;15.592;2023-04-05T11:51:52;17.80;41.20
76537;DHT22;65381;51.254;15.592;2023-04-05T11:56:55;14.00;42.60
76537;DHT22;65381;51.254;15.592;2023-04-05T11:59:34;12.70;43.00
76537;DHT22;65381;51.254;15.592;2023-04-05T12:02:04;11.40;43.50
76537;DHT22;65381;51.254;15.592;2023-04-05T12:04:36;10.50;44.00
76537;DHT22;65381;51.254;15.592;2023-04-05T12:07:16;10.00;44.10
76537;DHT22;65381;51.254;15.592;2023-04-05T12:12:43;9.10;44.30
76537;DHT22;65381;51.254;15.592;2023-04-05T12:15:14;8.90;44.20
76537;DHT22;65381;51.254;15.592;2023-04-05T12:17:47;8.60;44.10
76537;DHT22;65381;51.254;15.592;2023-04-05T12:20:23;8.30;44.30
76537;DHT22;65381;51.254;15.592;2023-04-05T12:22:54;8.30;44.20
76537;DHT22;65381;51.254;15.592;2023-04-05T12:25:24;8.10;44.20
76537;DHT22;65381;51.254;15.592;2023-04-05T12:27:52;8.00;44.20
76537;DHT22;65381;51.254;15.592;2023-04-05T12:30:22;7.90;44.30
76537;DHT22;65381;51.254;15.592;2023-04-05T12:32:55;7.90;44.30
76537;DHT22;65381;51.254;15.592;2023-04-05T12:35:27;7.80;44.40
76537;DHT22;65381;51.254;15.592;2023-04-05T12:38:04;7.80;44.50
76537;DHT22;65381;51.254;15.592;2023-04-05T12:40:39;8.00;44.50
76537;DHT22;65381;51.254;15.592;2023-04-05T12:43:08;8.10;44.40
76537;DHT22;65381;51.254;15.592;2023-04-05T12:45:37;8.30;44.50
76537;DHT22;65381;51.254;15.592;2023-04-05T12:48:09;8.30;44.40
76537;DHT22;65381;51.254;15.592;2023-04-05T12:50:44;8.30;44.60
76537;DHT22;65381;51.254;15.592;2023-04-05T12:55:54;9.20;44.80
76537;DHT22;65381;51.254;15.592;2023-04-05T12:58:34;9.70;44.70
76537;DHT22;65381;51.254;15.592;2023-04-05T13:01:03;10.60;45.10
76537;DHT22;65381;51.254;15.592;2023-04-05T13:03:31;12.70;45.30
76537;DHT22;65381;51.254;15.592;2023-04-05T13:05:59;14.60;44.20
76537;DHT22;65381;51.254;15.592;2023-04-05T13:08:27;15.20;43.10
76537;DHT22;65381;51.254;15.592;2023-04-05T13:10:55;14.80;42.90
76537;DHT22;65381;51.254;15.592;2023-04-05T13:13:24;14.20;43.10
76537;DHT22;65381;51.254;15.592;2023-04-05T13:15:52;13.50;43.30
76537;DHT22;65381;51.254;15.592;2023-04-05T13:18:20;12.90;43.60
76537;DHT22;65381;51.254;15.592;2023-04-05T13:20:48;11.90;43.50
76537;DHT22;65381;51.254;15.592;2023-04-05T13:23:16;10.80;43.90
76537;DHT22;65381;51.254;15.592;2023-04-05T13:25:44;9.70;44.50
76537;DHT22;65381;51.254;15.592;2023-04-05T13:28:12;8.80;45.10
76537;DHT22;65381;51.254;15.592;2023-04-05T13:30:40;8.30;45.50
76537;DHT22;65381;51.254;15.592;2023-04-05T13:33:08;7.90;45.60
76537;DHT22;65381;51.254;15.592;2023-04-05T13:35:37;7.50;45.70
76537;DHT22;65381;51.254;15.592;2023-04-05T13:38:05;7.20;45.80
76537;DHT22;65381;51.254;15.592;2023-04-05T13:40:34;6.90;46.10
76537;DHT22;65381;51.254;15.592;2023-04-05T13:43:02;6.80;46.10
76537;DHT22;65381;51.254;15.592;2023-04-05T13:45:31;6.60;46.40
76537;DHT22;65381;51.254;15.592;2023-04-05T13:48:01;6.70;46.70
76537;DHT22;65381;51.254;15.592;2023-04-05T13:50:32;7.00;47.00
76537;DHT22;65381;51.254;15.592;2023-04-05T13:53:00;7.60;47.20
76537;DHT22;65381;51.254;15.592;2023-04-05T13:55:28;8.30;47.00
76537;DHT22;65381;51.254;15.592;2023-04-05T13:57:56;9.00;46.70
76537;DHT22;65381;51.254;15.592;2023-04-05T14:00:24;9.50;46.20
76537;DHT22;65381;51.254;15.592;2023-04-05T14:02:52;9.50;45.90
76537;DHT22;65381;51.254;15.592;2023-04-05T14:05:21;9.20;45.90
76537;DHT22;65381;51.254;15.592;2023-04-05T14:07:48;8.90;46.20
76537;DHT22;65381;51.254;15.592;2023-04-05T14:10:17;8.60;46.50
76537;DHT22;65381;51.254;15.592;2023-04-05T14:12:48;8.50;46.60
76537;DHT22;65381;51.254;15.592;2023-04-05T14:15:16;8.40;46.80
76537;DHT22;65381;51.254;15.592;2023-04-05T14:17:44;8.30;46.80
76537;DHT22;65381;51.254;15.592;2023-04-05T14:20:12;8.20;46.90
76537;DHT22;65381;51.254;15.592;2023-04-05T14:22:40;8.00;47.00
76537;DHT22;65381;51.254;15.592;2023-04-05T14:25:10;7.90;47.10
76537;DHT22;65381;51.254;15.592;2023-04-05T14:27:38;7.80;47.20
76537;DHT22;65381;51.254;15.592;2023-04-05T14:30:10;8.00;47.30
76537;DHT22;65381;51.254;15.592;2023-04-05T14:32:38;8.00;47.20
76537;DHT22;65381;51.254;15.592;2023-04-05T14:35:07;8.10;47.20
76537;DHT22;65381;51.254;15.592;2023-04-05T14:37:35;8.00;47.10
76537;DHT22;65381;51.254;15.592;2023-04-05T14:40:04;8.00;47.20
76537;DHT22;65381;51.254;15.592;2023-04-05T14:42:32;8.00;47.30
76537;DHT22;65381;51.254;15.592;2023-04-05T14:45:16;7.90;47.20
76537;DHT22;65381;51.254;15.592;2023-04-05T14:47:44;7.80;47.30
76537;DHT22;65381;51.254;15.592;2023-04-05T14:50:12;7.90;47.30
76537;DHT22;65381;51.254;15.592;2023-04-05T14:52:40;8.10;47.30
76537;DHT22;65381;51.254;15.592;2023-04-05T14:55:08;8.20;47.10
76537;DHT22;65381;51.254;15.592;2023-04-05T14:57:39;8.30;47.10
76537;DHT22;65381;51.254;15.592;2023-04-05T15:00:10;8.40;47.00
76537;DHT22;65381;51.254;15.592;2023-04-05T15:02:38;8.50;46.90
76537;DHT22;65381;51.254;15.592;2023-04-05T15:05:07;8.50;46.90
76537;DHT22;65381;51.254;15.592;2023-04-05T15:07:35;8.40;46.90
76537;DHT22;65381;51.254;15.592;2023-04-05T15:10:04;8.30;46.90
76537;DHT22;65381;51.254;15.592;2023-04-05T15:12:32;8.20;47.00
76537;DHT22;65381;51.254;15.592;2023-04-05T15:15:01;8.10;47.10
76537;DHT22;65381;51.254;15.592;2023-04-05T15:17:29;8.00;47.20
76537;DHT22;65381;51.254;15.592;2023-04-05T15:19:57;7.80;47.20
76537;DHT22;65381;51.254;15.592;2023-04-05T15:22:25;7.70;47.30
76537;DHT22;65381;51.254;15.592;2023-04-05T15:24:54;7.60;47.40
76537;DHT22;65381;51.254;15.592;2023-04-05T15:27:22;7.50;47.50
76537;DHT22;65381;51.254;15.592;2023-04-05T15:29:50;7.40;47.50
76537;DHT22;65381;51.254;15.592;2023-04-05T15:32:18;7.40;47.60
76537;DHT22;65381;51.254;15.592;2023-04-05T15:34:46;7.40;47.60
76537;DHT22;65381;51.254;15.592;2023-04-05T15:37:14;7.40;47.50
76537;DHT22;65381;51.254;15.592;2023-04-05T15:39:43;7.20;47.70
76537;DHT22;65381;51.254;15.592;2023-04-05T15:42:11;7.30;47.70
76537;DHT22;65381;51.254;15.592;2023-04-05T15:44:39;7.40;47.60
76537;DHT22;65381;51.254;15.592;2023-04-05T15:47:09;7.40;47.60
76537;DHT22;65381;51.254;15.592;2023-04-05T15:49:38;7.40;47.60
76537;DHT22;65381;51.254;15.592;2023-04-05T15:52:05;7.40;47.50
76537;DHT22;65381;51.254;15.592;2023-04-05T15:54:33;7.40;47.50
76537;DHT22;65381;51.254;15.592;2023-04-05T15:57:01;7.30;47.50
76537;DHT22;65381;51.254;15.592;2023-04-05T15:59:30;7.20;47.60
76537;DHT22;65381;51.254;15.592;2023-04-05T16:01:58;7.20;47.70
76537;DHT22;65381;51.254;15.592;2023-04-05T16:04:26;7.40;47.60
76537;DHT22;65381;51.254;15.592;2023-04-05T16:06:56;7.40;47.50
76537;DHT22;65381;51.254;15.592;2023-04-05T16:09:25;7.40;47.40
76537;DHT22;65381;51.254;15.592;2023-04-05T16:11:53;7.20;47.50
76537;DHT22;65381;51.254;15.592;2023-04-05T16:14:21;7.10;47.50
76537;DHT22;65381;51.254;15.592;2023-04-05T16:16:49;7.00;47.50